Time;durP1;ratioP1;P1;durP2;ratioP2;P2;SDS_P1;SDS_P2;PMS_P1;PMS_P2;Temp;Humidity;BMP_temperature;BMP_pressure;BME280_temperature;BME280_humidity;BME280_pressure;Samples;Min_cycle;Max_cycle;Signal;HPM_P1;HPM_P2
2022/04/01 00:02:13;;;;;;;17.85;11.25;;;;;;;13.46;68.99;98907.66;5033058;28;20049;-62
2022/04/01 00:04:40;;;;;;;16.10;11.30;;;;;;;13.44;69.00;98909.63;5032961;28;20482;-61
2022/04/01 00:07:07;;;;;;;16.83;10.70;;;;;;;13.43;69.14;98913.25;5032965;28;20375;-62
2022/04/01 00:09:33;;;;;;;15.93;10.35;;;;;;;13.42;69.31;98915.06;5031784;28;20053;-62
2022/04/01 00:12:00;;;;;;;14.98;10.73;;;;;;;13.41;69.26;98916.03;5032877;28;20052;-61
2022/04/01 00:14:27;;;;;;;19.05;10.50;;;;;;;13.42;69.43;98920.34;5032878;28;20056;-62
2022/04/01 00:16:54;;;;;;;22.15;11.27;;;;;;;13.43;69.34;98916.69;5032699;28;20052;-62
2022/04/01 00:19:20;;;;;;;15.40;11.07;;;;;;;13.43;69.50;98915.88;5032652;28;20616;-62
2022/04/01 00:21:47;;;;;;;18.42;11.80;;;;;;;13.43;69.38;98911.41;5032894;28;20042;-61
2022/04/01 00:24:14;;;;;;;19.25;12.15;;;;;;;13.44;69.52;98909.63;5032866;28;20050;-61
2022/04/01 00:26:41;;;;;;;18.85;11.77;;;;;;;13.44;69.41;98904.38;5031779;28;20104;-68
2022/04/01 00:29:16;;;;;;;22.63;11.90;;;;;;;13.43;69.70;98897.44;5032569;28;20100;-61
2022/04/01 00:31:58;;;;;;;18.33;12.15;;;;;;;13.43;69.62;98895.63;5032663;28;20118;-62
2022/04/01 00:34:26;;;;;;;19.38;12.15;;;;;;;13.42;69.78;98901.88;5032609;28;20117;-68
2022/04/01 00:36:54;;;;;;;18.40;11.60;;;;;;;13.43;69.75;98906.16;5032624;28;20057;-61
2022/04/01 00:39:22;;;;;;;18.38;12.32;;;;;;;13.43;69.71;98902.69;5032401;28;20111;-61
2022/04/01 00:41:49;;;;;;;17.20;13.23;;;;;;;13.43;69.89;98890.34;5032488;28;20053;-61
2022/04/01 00:44:24;;;;;;;18.55;12.45;;;;;;;13.45;69.83;98895.47;5031229;28;20089;-62
2022/04/01 00:46:53;;;;;;;26.57;13.40;;;;;;;13.42;69.94;98888.72;5032539;28;20058;-61
2022/04/01 00:49:21;;;;;;;20.15;12.90;;;;;;;13.43;69.91;98887.72;5032386;28;20053;-61
2022/04/01 00:51:49;;;;;;;21.88;12.40;;;;;;;13.43;69.89;98885.06;5032366;28;20045;-61
2022/04/01 00:54:17;;;;;;;21.33;13.20;;;;;;;13.41;69.83;98888.84;5032317;28;20046;-61
2022/04/01 00:56:44;;;;;;;22.10;12.63;;;;;;;13.40;69.74;98885.38;5032097;28;20548;-61
2022/04/01 00:59:12;;;;;;;21.38;12.50;;;;;;;13.39;69.97;98874.03;5030677;28;20049;-62
2022/04/01 01:01:43;;;;;;;20.85;12.48;;;;;;;13.40;70.03;98869.59;5032103;28;20045;-62
2022/04/01 01:04:15;;;;;;;18.33;12.70;;;;;;;13.39;69.71;98862.66;5032182;28;20072;-61
2022/04/01 01:06:47;;;;;;;17.65;12.68;;;;;;;13.36;69.57;98874.28;5031596;28;20103;-61
2022/04/01 01:09:14;;;;;;;24.73;13.02;;;;;;;13.36;69.90;98870.84;5031505;28;20045;-62
2022/04/01 01:11:42;;;;;;;19.45;13.25;;;;;;;13.31;69.85;98868.66;5031606;28;20045;-61
2022/04/01 01:14:11;;;;;;;24.17;13.95;;;;;;;13.29;69.66;98867.16;5032234;28;20045;-63
2022/04/01 01:16:43;;;;;;;26.80;14.02;;;;;;;13.27;69.75;98855.91;5030871;28;20060;-61
2022/04/01 01:19:12;;;;;;;20.17;13.43;;;;;;;13.26;69.64;98873.53;5032229;28;20053;-62
2022/04/01 01:21:40;;;;;;;19.10;13.40;;;;;;;13.19;69.74;98881.22;5034728;28;20480;-62
2022/04/01 01:24:13;;;;;;;23.48;14.80;;;;;;;13.15;69.85;98884.28;5035877;28;20493;-67
2022/04/01 01:26:43;;;;;;;20.80;13.70;;;;;;;13.13;69.97;98895.00;5035757;28;20045;-61
2022/04/01 01:29:10;;;;;;;20.90;13.90;;;;;;;13.13;70.01;98892.34;5035760;28;20073;-62
2022/04/01 01:31:37;;;;;;;18.25;13.20;;;;;;;13.12;69.92;98898.59;5034609;28;20409;-62
2022/04/01 01:34:04;;;;;;;21.27;14.32;;;;;;;13.10;69.87;98889.19;5035908;28;20095;-62
2022/04/01 01:36:31;;;;;;;22.30;14.07;;;;;;;13.08;70.00;98886.72;5035678;28;20045;-61
2022/04/01 01:38:58;;;;;;;25.52;14.15;;;;;;;13.05;69.79;98877.31;5035494;28;20512;-62
2022/04/01 01:41:25;;;;;;;19.20;13.43;;;;;;;13.06;69.79;98878.97;5035707;28;20513;-62
2022/04/01 01:43:53;;;;;;;23.33;14.80;;;;;;;13.04;69.95;98869.56;5035718;28;20049;-62
2022/04/01 01:46:19;;;;;;;24.83;14.80;;;;;;;13.01;70.03;98864.56;5035472;28;20049;-61
2022/04/01 01:48:46;;;;;;;22.95;14.85;;;;;;;12.98;70.17;98862.25;5034417;28;20045;-61
2022/04/01 01:56:45;;;;;;;22.45;15.32;;;;;;;12.96;69.78;98853.66;5035248;28;20272;-62
2022/04/01 01:59:11;;;;;;;22.52;15.35;;;;;;;12.94;70.04;98853.81;5035359;28;20054;-62
2022/04/01 02:01:42;;;;;;;23.10;14.70;;;;;;;12.92;70.16;98850.50;5035176;28;20123;-65
2022/04/01 02:04:11;;;;;;;21.95;15.02;;;;;;;12.88;70.03;98846.50;5034169;28;20044;-61
2022/04/01 02:06:38;;;;;;;26.63;16.05;;;;;;;12.85;70.31;98839.75;5035064;28;20053;-61
2022/04/01 02:09:05;;;;;;;23.38;15.02;;;;;;;12.86;69.99;98846.66;5035295;28;20046;-61
2022/04/01 02:11:31;;;;;;;24.23;15.63;;;;;;;12.83;70.14;98836.41;5034980;28;20054;-61
2022/04/01 02:13:58;;;;;;;23.17;15.85;;;;;;;12.84;70.00;98847.78;5035086;28;20099;-61
2022/04/01 02:16:25;;;;;;;23.23;15.73;;;;;;;12.79;70.28;98842.97;5034992;28;20046;-69
2022/04/01 02:18:52;;;;;;;22.83;15.38;;;;;;;12.77;70.21;98844.09;5033708;28;20045;-62
2022/04/01 02:21:18;;;;;;;22.67;15.25;;;;;;;12.73;70.35;98840.91;5034902;28;20052;-61
2022/04/01 02:23:47;;;;;;;24.85;15.60;;;;;;;12.72;70.19;98845.38;5035182;28;20103;-68
2022/04/01 02:26:14;;;;;;;26.30;15.30;;;;;;;12.74;70.09;98846.03;5034958;28;20115;-61
2022/04/01 02:28:42;;;;;;;27.05;15.88;;;;;;;12.74;70.13;98846.03;5034781;28;20046;-62
2022/04/01 02:31:18;;;;;;;22.63;15.68;;;;;;;12.78;69.88;98845.75;5034567;28;20053;-62
2022/04/01 02:33:45;;;;;;;28.00;16.67;;;;;;;12.77;69.97;98846.72;5033904;28;20049;-62
2022/04/01 02:36:11;;;;;;;28.70;16.58;;;;;;;12.79;70.01;98842.16;5033176;28;20050;-61
2022/04/01 02:38:40;;;;;;;26.55;16.17;;;;;;;12.76;69.83;98845.91;5034458;28;20042;-61
2022/04/01 02:41:09;;;;;;;23.42;16.27;;;;;;;12.76;69.97;98850.31;5034438;28;20167;-61
2022/04/01 02:43:35;;;;;;;24.13;17.00;;;;;;;12.74;69.87;98850.47;5034403;28;20418;-61
2022/04/01 02:46:03;;;;;;;28.75;17.17;;;;;;;12.77;70.06;98851.97;5034511;28;20049;-62
2022/04/01 02:48:31;;;;;;;28.35;16.08;;;;;;;12.79;70.15;98855.31;5034252;28;20095;-61
2022/04/01 02:50:58;;;;;;;25.67;16.83;;;;;;;12.78;69.92;98843.94;5033312;28;20053;-62
2022/04/01 02:53:25;;;;;;;24.15;16.45;;;;;;;12.80;69.74;98846.41;5034462;28;20046;-61
2022/04/01 02:55:51;;;;;;;26.50;16.80;;;;;;;12.78;69.78;98838.66;5034341;28;20107;-61
2022/04/01 02:58:18;;;;;;;26.25;16.40;;;;;;;12.79;69.92;98837.69;5034281;28;20049;-61
2022/04/01 03:00:45;;;;;;;26.95;16.55;;;;;;;12.80;69.90;98835.88;5034127;28;20497;-66
2022/04/01 03:03:12;;;;;;;24.90;16.35;;;;;;;12.81;69.75;98838.38;5030295;28;20052;-61
2022/04/01 03:05:42;;;;;;;27.85;16.90;;;;;;;12.77;70.12;98842.28;5030849;28;20057;-61
2022/04/01 03:08:09;;;;;;;23.83;16.95;;;;;;;12.78;69.85;98845.75;5029998;28;20055;-61
2022/04/01 03:10:39;;;;;;;28.25;18.67;;;;;;;12.79;69.84;98848.22;5030554;28;20045;-61
2022/04/01 03:13:07;;;;;;;26.65;18.17;;;;;;;12.77;70.02;98846.72;5030733;28;20045;-61
2022/04/01 03:15:34;;;;;;;25.50;17.25;;;;;;;12.74;70.13;98834.69;5030491;28;20493;-61
2022/04/01 03:18:01;;;;;;;24.20;16.95;;;;;;;12.77;70.17;98838.81;5030479;28;20045;-61
2022/04/01 03:20:29;;;;;;;28.83;17.58;;;;;;;12.74;70.05;98835.50;5030507;28;20126;-61
2022/04/01 03:22:57;;;;;;;28.65;18.90;;;;;;;12.77;70.16;98837.00;5029694;28;20048;-61
2022/04/01 03:25:24;;;;;;;35.15;21.23;;;;;;;12.78;70.21;98843.94;5030680;28;20516;-61
2022/04/01 03:27:51;;;;;;;35.00;20.40;;;;;;;12.77;70.10;98847.53;5030532;28;20052;-61
2022/04/01 03:30:18;;;;;;;30.75;19.00;;;;;;;12.74;70.16;98842.59;5030314;28;20049;-62
2022/04/01 03:32:47;;;;;;;24.52;17.35;;;;;;;12.70;70.49;98847.31;5030049;28;20049;-61
2022/04/01 03:35:17;;;;;;;29.75;17.38;;;;;;;12.71;70.28;98837.63;5030231;28;20045;-61
2022/04/01 03:37:45;;;;;;;29.92;17.52;;;;;;;12.70;70.53;98851.75;5029210;28;20100;-62
2022/04/01 03:40:16;;;;;;;27.17;18.40;;;;;;;12.71;70.41;98850.78;5030191;28;20058;-61
2022/04/01 03:42:45;;;;;;;26.92;18.55;;;;;;;12.69;70.53;98850.91;5030089;28;20045;-61
2022/04/01 03:45:12;;;;;;;29.80;19.50;;;;;;;12.66;70.62;98845.09;5029958;28;20045;-61
2022/04/01 03:47:55;;;;;;;29.98;18.70;;;;;;;12.65;70.73;98846.91;5030031;28;20049;-61
2022/04/01 03:50:29;;;;;;;25.90;18.48;;;;;;;12.63;70.74;98850.69;5029939;28;20049;-61
2022/04/01 03:53:04;;;;;;;28.90;19.75;;;;;;;12.62;70.82;98852.50;5029980;28;20061;-62
2022/04/01 03:55:36;;;;;;;28.02;19.50;;;;;;;12.61;70.87;98845.56;5027533;28;20045;-61
2022/04/01 03:58:07;;;;;;;28.63;19.17;;;;;;;12.62;70.84;98851.66;5029955;28;20053;-61
2022/04/01 04:00:35;;;;;;;33.67;21.05;;;;;;;12.58;70.73;98851.94;5029369;28;20049;-62
2022/04/01 04:03:06;;;;;;;32.08;21.00;;;;;;;12.61;70.88;98863.13;5029794;28;20480;-62
2022/04/01 04:05:38;;;;;;;31.27;20.60;;;;;;;12.60;70.73;98859.69;5029686;28;20056;-61
2022/04/01 04:08:06;;;;;;;34.88;21.70;;;;;;;12.59;70.78;98858.03;5029919;28;20049;-61
2022/04/01 04:10:35;;;;;;;32.30;21.10;;;;;;;12.57;70.80;98858.19;5028110;28;20131;-62
2022/04/01 04:13:04;;;;;;;32.30;21.10;;;;;;;12.55;70.76;98851.41;5029088;28;20049;-63
2022/04/01 04:15:40;;;;;;;35.50;21.65;;;;;;;12.52;70.78;98851.69;5029648;28;20045;-61
2022/04/01 04:18:12;;;;;;;31.38;22.35;;;;;;;12.50;70.70;98854.47;5029605;28;20056;-61
2022/04/01 04:21:04;;;;;;;34.65;23.05;;;;;;;12.45;70.97;98859.34;5029370;28;20111;-61
2022/04/01 04:23:47;;;;;;;36.70;24.75;;;;;;;12.44;70.84;98857.69;5029550;28;20135;-61
2022/04/01 04:26:25;;;;;;;32.83;22.67;;;;;;;12.45;70.75;98853.25;5029441;28;20061;-61
2022/04/01 04:28:59;;;;;;;38.80;24.73;;;;;;;12.44;70.77;98848.97;5028400;28;20045;-61
2022/04/01 04:31:30;;;;;;;38.20;25.42;;;;;;;12.39;70.84;98844.13;5029367;28;20049;-61
2022/04/01 04:34:02;;;;;;;41.20;25.17;;;;;;;12.35;70.96;98840.97;5029351;28;20080;-61
2022/04/01 04:36:37;;;;;;;37.50;25.45;;;;;;;12.36;71.03;98844.44;5029116;28;20091;-61
2022/04/01 04:39:06;;;;;;;37.85;25.85;;;;;;;12.36;70.66;98840.00;5028899;28;20076;-62
2022/04/01 04:41:33;;;;;;;37.33;25.17;;;;;;;12.36;70.73;98833.94;5029192;28;20060;-61
2022/04/01 04:44:01;;;;;;;41.40;25.52;;;;;;;12.31;70.92;98836.97;5029132;28;20081;-61
2022/04/01 04:46:30;;;;;;;38.15;26.20;;;;;;;12.31;70.86;98828.28;5028022;28;20084;-61
2022/04/01 04:48:58;;;;;;;40.85;25.67;;;;;;;12.29;70.86;98846.84;5029457;28;20045;-62
2022/04/01 04:51:26;;;;;;;40.80;25.80;;;;;;;12.27;71.16;98846.13;5028635;28;20053;-62
2022/04/01 04:53:56;;;;;;;38.15;25.70;;;;;;;12.26;71.01;98855.00;5028988;28;20049;-62
2022/04/01 04:56:24;;;;;;;37.60;24.67;;;;;;;12.26;71.04;98855.00;5028104;28;20049;-62
2022/04/01 04:58:53;;;;;;;41.13;26.05;;;;;;;12.22;71.10;98853.63;5028981;28;20089;-61
2022/04/01 05:01:41;;;;;;;36.63;25.40;;;;;;;12.20;71.14;98851.16;5028592;28;20096;-61
2022/04/01 05:04:33;;;;;;;11.25;8.07;;;;;;;13.09;70.47;98850.66;5028042;28;20417;-62
2022/04/01 05:07:26;;;;;;;24.58;15.27;;;;;;;13.51;69.11;98839.53;5018905;28;20468;-62
2022/04/01 05:09:58;;;;;;;41.15;26.00;;;;;;;13.03;69.74;98842.38;5028901;28;20107;-61
2022/04/01 05:12:44;;;;;;;37.65;25.20;;;;;;;12.82;70.04;98853.19;5029169;28;20046;-61
2022/04/01 05:15:17;;;;;;;37.78;25.25;;;;;;;12.70;70.25;98854.38;5028954;28;20050;-60
2022/04/01 05:17:54;;;;;;;36.35;24.92;;;;;;;12.61;70.50;98858.72;5028642;28;20053;-61
2022/04/01 05:20:26;;;;;;;35.33;24.08;;;;;;;12.57;70.33;98860.81;5027683;28;20088;-61
2022/04/01 05:23:12;;;;;;;34.38;23.48;;;;;;;12.53;70.33;98864.72;5028889;28;20056;-61
2022/04/01 05:25:54;;;;;;;31.58;22.65;;;;;;;12.53;70.45;98866.50;5028239;28;20052;-60
2022/04/01 05:28:23;;;;;;;33.10;21.23;;;;;;;12.57;70.26;98867.91;5028685;28;20057;-61
2022/04/01 05:31:01;;;;;;;31.38;21.02;;;;;;;12.58;70.15;98875.63;5028875;28;20053;-61
2022/04/01 05:33:39;;;;;;;28.02;21.02;;;;;;;12.58;70.29;98872.16;5028746;28;20055;-75
2022/04/01 05:36:10;;;;;;;29.05;20.58;;;;;;;12.61;70.29;98878.94;5028714;28;20490;-61
2022/04/01 05:38:38;;;;;;;25.45;19.73;;;;;;;12.62;70.17;98877.97;5027803;28;20045;-61
2022/04/01 05:41:06;;;;;;;26.50;20.33;;;;;;;12.62;70.25;98875.31;5029102;28;20104;-61
2022/04/01 05:43:33;;;;;;;29.02;20.25;;;;;;;12.64;70.29;98876.84;5028795;28;20061;-75
2022/04/01 05:46:03;;;;;;;29.13;19.33;;;;;;;12.63;70.30;98877.00;5028664;28;20497;-62
2022/04/01 05:48:35;;;;;;;27.23;18.45;;;;;;;12.64;70.25;98883.91;5028802;28;20080;-76
2022/04/01 05:51:04;;;;;;;24.92;19.98;;;;;;;12.63;70.31;98888.34;5028568;28;20053;-62
2022/04/01 05:53:33;;;;;;;25.48;19.17;;;;;;;12.57;70.71;98892.38;5027972;28;20049;-62
2022/04/01 05:56:01;;;;;;;25.33;18.73;;;;;;;12.67;70.57;98884.47;5027570;28;20079;-62
2022/04/01 05:58:27;;;;;;;25.50;19.88;;;;;;;12.75;70.41;98889.00;5028780;28;20057;-63
2022/04/01 06:00:54;;;;;;;25.65;19.58;;;;;;;12.82;70.26;98902.38;5028768;28;20077;-63
2022/04/01 06:03:33;;;;;;;28.05;19.17;;;;;;;12.86;70.25;98899.31;5028285;28;20056;-63
2022/04/01 06:06:17;;;;;;;25.15;19.17;;;;;;;12.92;69.96;98900.50;5028471;28;20077;-63
2022/04/01 06:09:01;;;;;;;25.00;19.13;;;;;;;13.00;70.00;98908.53;5031320;28;20119;-63
2022/04/01 06:12:06;;;;;;;27.83;19.77;;;;;;;12.95;70.07;98913.41;5030079;28;20053;-63
2022/04/01 06:14:52;;;;;;;26.13;19.65;;;;;;;13.03;70.13;98921.38;5011489;28;20045;-64
2022/04/01 06:17:29;;;;;;;27.20;19.73;;;;;;;13.03;70.26;98916.09;5031570;28;20429;-64
2022/04/01 06:19:57;;;;;;;28.25;19.23;;;;;;;13.00;70.34;98926.94;5031764;28;20140;-63
2022/04/01 06:22:28;;;;;;;24.15;19.77;;;;;;;13.00;70.24;98928.72;5031171;28;20053;-74
2022/04/01 06:25:12;;;;;;;26.25;18.52;;;;;;;12.97;70.40;98919.31;5030949;28;20128;-63
2022/04/01 06:27:45;;;;;;;23.25;18.63;;;;;;;12.98;70.41;98928.06;5028399;28;20049;-62
2022/04/01 06:30:15;;;;;;;22.20;18.63;;;;;;;12.99;70.21;98922.66;5026986;28;20057;-63
2022/04/01 06:33:04;;;;;;;25.83;19.95;;;;;;;13.01;70.15;98922.50;5031193;28;20124;-65
2022/04/01 06:35:44;;;;;;;26.10;18.60;;;;;;;13.04;70.19;98923.03;5030361;28;20088;-63
2022/04/01 06:38:20;;;;;;;24.20;18.80;;;;;;;13.10;69.88;98923.41;5031234;28;20041;-64
2022/04/01 06:41:05;;;;;;;;;;;;;;;13.08;70.06;98920.94;5031125;28;20486;-72
2022/04/01 06:43:32;;;;;;;24.00;19.42;;;;;;;13.10;69.74;98924.22;5028256;28;19925;-63
2022/04/01 06:45:59;;;;;;;29.02;19.60;;;;;;;13.17;69.87;98921.84;5030661;28;20065;-64
2022/04/01 06:48:25;;;;;;;26.50;19.83;;;;;;;13.20;69.83;98921.56;5030806;28;20084;-63
2022/04/01 06:50:54;;;;;;;25.70;20.90;;;;;;;13.27;69.76;98916.50;5030651;28;20049;-70
2022/04/01 06:53:21;;;;;;;25.58;19.08;;;;;;;13.31;69.77;98912.63;5030568;28;20069;-64
2022/04/01 06:55:48;;;;;;;23.73;19.35;;;;;;;13.34;69.59;98918.38;5030829;28;20119;-68
2022/04/01 06:58:15;;;;;;;25.35;20.30;;;;;;;13.39;69.30;98920.63;5030345;28;20543;-64
2022/04/01 07:00:42;;;;;;;27.23;19.70;;;;;;;13.45;69.29;98922.66;5030059;28;20049;-64
2022/04/01 07:03:10;;;;;;;30.85;20.58;;;;;;;13.46;69.33;98924.31;5029636;28;20045;-63
2022/04/01 07:05:38;;;;;;;25.38;20.60;;;;;;;13.50;69.16;98920.38;5030359;28;20053;-63
2022/04/01 07:08:06;;;;;;;25.88;19.58;;;;;;;13.58;69.12;98910.91;5030586;28;20490;-65
2022/04/01 07:10:33;;;;;;;24.42;19.48;;;;;;;13.66;68.83;98911.81;5030175;28;20432;-64
2022/04/01 07:13:00;;;;;;;25.27;20.73;;;;;;;13.78;68.45;98917.66;5028948;28;20568;-63
2022/04/01 07:15:27;;;;;;;27.33;21.23;;;;;;;13.92;68.17;98910.19;5030229;28;20046;-63
2022/04/01 07:17:55;;;;;;;29.52;22.58;;;;;;;13.98;67.89;98914.81;5028356;28;20085;-63
2022/04/01 07:20:21;;;;;;;30.00;22.13;;;;;;;13.99;67.99;98916.50;5030417;28;20046;-63
2022/04/01 07:22:51;;;;;;;31.52;22.67;;;;;;;14.05;67.70;98910.59;5029454;28;20050;-63
2022/04/01 07:25:19;;;;;;;27.42;21.90;;;;;;;14.01;67.88;98919.81;5030374;28;20049;-64
2022/04/01 07:27:46;;;;;;;25.15;20.33;;;;;;;13.99;68.03;98917.34;5030146;28;20046;-63
2022/04/01 07:30:13;;;;;;;27.95;20.25;;;;;;;14.00;67.76;98918.97;5030361;28;20049;-64
2022/04/01 07:32:40;;;;;;;27.13;20.88;;;;;;;14.05;67.54;98907.97;5030010;28;20059;-69
2022/04/01 07:35:11;;;;;;;27.48;20.13;;;;;;;14.08;67.53;98910.31;5028952;28;20053;-64
2022/04/01 07:37:38;;;;;;;23.63;17.98;;;;;;;14.14;67.13;98919.41;5030273;28;20462;-64
2022/04/01 07:40:24;;;;;;;23.88;18.13;;;;;;;14.21;66.76;98915.16;5029965;28;20132;-63
2022/04/01 07:42:52;;;;;;;28.83;17.45;;;;;;;14.32;66.50;98914.91;5030379;28;20052;-63
2022/04/01 07:45:19;;;;;;;21.80;16.77;;;;;;;14.43;66.28;98916.44;5029895;28;20042;-65
2022/04/01 07:47:47;;;;;;;22.00;16.83;;;;;;;14.45;65.93;98917.09;5029839;28;20045;-63
2022/04/01 07:50:15;;;;;;;26.25;17.77;;;;;;;14.39;66.00;98920.38;5029892;28;20099;-63
2022/04/01 07:52:43;;;;;;;25.70;17.05;;;;;;;14.31;66.16;98928.22;5027552;28;20500;-72
2022/04/01 07:55:13;;;;;;;21.90;15.57;;;;;;;14.20;66.25;98924.06;5029143;28;20038;-64
2022/04/01 07:57:41;;;;;;;24.42;16.75;;;;;;;14.13;66.38;98928.28;5029552;28;20132;-63
2022/04/01 08:00:14;;;;;;;26.40;17.92;;;;;;;14.05;66.16;98931.69;5028984;28;20049;-63
2022/04/01 08:02:42;;;;;;;11.20;6.88;;;;;;;14.30;66.13;98932.69;5029241;28;20055;-63
2022/04/01 08:05:09;;;;;;;25.80;16.77;;;;;;;14.67;64.74;98931.59;5029657;28;20060;-63
2022/04/01 08:07:36;;;;;;;29.02;17.85;;;;;;;14.47;65.30;98938.06;5021169;28;20433;-64
2022/04/01 08:10:05;;;;;;;27.85;17.98;;;;;;;14.40;65.55;98937.03;5021256;28;20053;-72
2022/04/01 08:12:40;;;;;;;25.08;16.60;;;;;;;14.35;65.50;98935.69;5022908;28;20053;-63
2022/04/01 08:15:07;;;;;;;24.75;17.50;;;;;;;14.29;65.58;98943.41;5029402;28;20046;-63
2022/04/01 08:17:34;;;;;;;22.02;15.77;;;;;;;14.23;65.43;98947.47;5033048;28;20121;-63
2022/04/01 08:20:01;;;;;;;23.83;17.05;;;;;;;14.21;65.56;98944.19;5009242;28;20042;-73
2022/04/01 08:22:27;;;;;;;23.40;16.75;;;;;;;14.25;65.26;98949.97;5011904;28;20046;-72
2022/04/01 08:24:54;;;;;;;24.15;16.52;;;;;;;14.27;65.23;98948.84;5013452;28;20452;-71
2022/04/01 08:27:22;;;;;;;24.17;16.10;;;;;;;14.26;65.38;98955.09;5029408;28;20052;-63
2022/04/01 08:29:48;;;;;;;23.65;16.35;;;;;;;14.27;65.04;98955.91;5029108;28;20478;-63
2022/04/01 08:32:15;;;;;;;25.23;17.58;;;;;;;14.30;65.15;98961.72;5028954;28;20053;-63
2022/04/01 08:34:42;;;;;;;25.00;17.35;;;;;;;14.28;65.10;98961.03;5029161;28;20132;-62
2022/04/01 08:37:09;;;;;;;21.63;16.17;;;;;;;14.29;65.04;98960.03;5028920;28;20045;-63
2022/04/01 08:39:36;;;;;;;21.70;16.20;;;;;;;14.28;64.82;98968.13;5027724;28;20053;-64
2022/04/01 08:42:04;;;;;;;24.10;17.52;;;;;;;14.27;64.80;98956.75;5029352;28;20045;-63
2022/04/01 08:44:31;;;;;;;23.65;16.98;;;;;;;14.28;64.67;98966.31;5029116;28;20103;-63
2022/04/01 08:46:57;;;;;;;25.88;17.23;;;;;;;14.33;64.46;98971.13;5028990;28;20517;-64
2022/04/01 08:49:25;;;;;;;25.63;16.63;;;;;;;14.32;64.67;98970.31;5029217;28;20107;-64
2022/04/01 08:51:51;;;;;;;25.27;17.48;;;;;;;14.32;64.77;98980.03;5029357;28;20060;-63
2022/04/01 08:54:18;;;;;;;29.45;18.50;;;;;;;14.29;64.66;98975.88;5029129;28;20049;-62
2022/04/01 08:56:45;;;;;;;15.52;8.93;;;;;;;14.51;64.41;98978.97;5028894;28;20045;-62
2022/04/01 08:59:12;;;;;;;12.65;8.23;;;;;;;14.98;63.25;98980.41;5028182;28;20045;-64
2022/04/01 09:01:43;;;;;;;27.65;18.40;;;;;;;14.86;63.75;98978.03;5027479;28;20041;-62
2022/04/01 09:04:23;;;;;;;30.17;19.58;;;;;;;14.74;63.99;98981.97;5028873;28;20049;-63
2022/04/01 09:06:51;;;;;;;29.98;19.33;;;;;;;14.65;64.01;98986.38;5027785;28;20041;-62
2022/04/01 09:09:25;;;;;;;28.00;18.98;;;;;;;14.50;64.15;98979.97;5028920;28;20072;-62
2022/04/01 09:12:17;;;;;;;29.23;20.15;;;;;;;14.39;64.59;98982.88;5028941;28;20053;-62
2022/04/01 09:14:53;;;;;;;31.75;21.30;;;;;;;14.37;64.46;98988.28;5027622;28;20057;-62
2022/04/01 09:17:20;;;;;;;30.67;20.67;;;;;;;14.36;64.40;98995.41;5028716;28;20482;-63
2022/04/01 09:20:05;;;;;;;33.35;21.85;;;;;;;14.31;64.69;98994.19;5029098;28;20124;-62
2022/04/01 09:22:31;;;;;;;35.72;22.23;;;;;;;14.25;64.97;99000.94;5028627;28;20060;-64
2022/04/01 09:24:59;;;;;;;32.00;21.58;;;;;;;14.26;64.94;98999.94;5028532;28;20046;-62
2022/04/01 09:27:51;;;;;;;34.28;22.25;;;;;;;14.28;64.58;99002.44;5028578;28;20054;-62
2022/04/01 09:30:28;;;;;;;37.10;22.27;;;;;;;14.28;64.67;98999.78;5026326;28;20042;-63
2022/04/01 09:33:05;;;;;;;31.05;22.70;;;;;;;14.30;64.57;99011.03;5028849;28;20053;-62
2022/04/01 09:35:33;;;;;;;30.83;22.15;;;;;;;14.32;64.62;99003.75;5028723;28;20413;-62
2022/04/01 09:38:03;;;;;;;33.33;22.70;;;;;;;14.29;64.42;99012.00;5028787;28;20445;-62
2022/04/01 09:40:30;;;;;;;34.05;22.67;;;;;;;14.34;64.51;99007.91;5028605;28;20103;-69
2022/04/01 09:43:06;;;;;;;32.55;22.75;;;;;;;14.46;64.22;99015.56;5032350;28;20054;-62
2022/04/01 09:45:37;;;;;;;33.00;21.80;;;;;;;14.52;63.92;99013.16;5032597;28;20045;-62
2022/04/01 09:48:10;;;;;;;36.03;21.52;;;;;;;14.57;63.90;99007.41;5031478;28;20053;-73
2022/04/01 09:50:43;;;;;;;35.22;22.98;;;;;;;14.65;63.94;99012.78;5032191;28;20076;-62
2022/04/01 09:53:14;;;;;;;31.90;21.92;;;;;;;14.68;63.75;98998.44;5032368;28;20115;-62
2022/04/01 09:55:43;;;;;;;33.83;22.17;;;;;;;14.77;63.81;99002.75;5032451;28;20052;-67
2022/04/01 09:58:10;;;;;;;33.05;23.52;;;;;;;14.82;63.48;99000.47;5032273;28;20049;-66
2022/04/01 10:00:40;;;;;;;34.42;22.50;;;;;;;14.85;63.68;99005.47;5031988;28;20049;-62
2022/04/01 10:03:07;;;;;;;35.05;21.92;;;;;;;14.90;63.55;99004.16;5031984;28;20045;-66
2022/04/01 10:05:36;;;;;;;36.10;23.15;;;;;;;14.93;63.54;98995.91;5030609;28;20049;-68
2022/04/01 10:08:04;;;;;;;32.30;22.20;;;;;;;15.03;63.24;98996.59;5031972;28;20045;-62
2022/04/01 10:10:32;;;;;;;31.75;22.52;;;;;;;15.10;63.17;98989.69;5031943;28;20050;-62
2022/04/01 10:13:03;;;;;;;30.75;20.70;;;;;;;15.17;62.91;98993.38;5032103;28;20049;-62
2022/04/01 10:15:32;;;;;;;35.65;23.40;;;;;;;15.22;62.90;98992.88;5031713;28;20046;-62
2022/04/01 10:18:01;;;;;;;33.40;21.45;;;;;;;15.23;62.80;98997.16;5032132;28;20551;-62
2022/04/01 10:20:36;;;;;;;34.75;22.35;;;;;;;15.17;62.90;98993.38;5030854;28;20041;-71
2022/04/01 10:23:08;;;;;;;34.15;22.13;;;;;;;15.09;63.14;99005.72;5031489;28;20140;-62
2022/04/01 10:25:57;;;;;;;35.88;22.52;;;;;;;15.04;63.31;99006.19;5031432;28;20045;-62
2022/04/01 10:28:26;;;;;;;29.48;20.95;;;;;;;14.97;63.65;98999.88;5031064;28;20053;-66
2022/04/01 10:31:02;;;;;;;15.43;7.90;;;;;;;15.21;63.31;98996.53;5031543;28;20049;-61
2022/04/01 10:33:33;;;;;;;14.90;8.80;;;;;;;15.52;62.55;98998.56;5031474;28;20506;-61
2022/04/01 10:36:22;;;;;;;15.40;10.85;;;;;;;15.73;61.85;98998.13;5031506;28;20050;-63
2022/04/01 10:38:58;;;;;;;20.48;13.88;;;;;;;15.91;61.58;99005.09;5031341;28;20107;-61
2022/04/01 10:41:25;;;;;;;20.45;13.50;;;;;;;16.05;61.04;99008.91;5030860;28;20128;-63
2022/04/01 10:43:56;;;;;;;32.40;19.45;;;;;;;16.20;60.92;99006.44;5031023;28;20103;-65
2022/04/01 10:46:23;;;;;;;28.60;20.00;;;;;;;16.00;61.01;99002.28;5031274;28;20517;-65
2022/04/01 10:52:02;;;;;;;29.25;20.35;;;;;;;15.74;61.95;99007.69;5030959;28;20445;-64
2022/04/01 10:54:28;;;;;;;27.90;19.95;;;;;;;15.70;61.98;99013.50;5028700;28;20045;-65
2022/04/01 10:57:05;;;;;;;31.83;21.20;;;;;;;15.61;61.91;99010.00;5030980;28;20046;-65
2022/04/01 10:59:52;;;;;;;32.22;21.38;;;;;;;15.58;61.85;99008.50;5030671;28;20076;-65
2022/04/01 11:02:21;;;;;;;28.13;19.40;;;;;;;15.67;61.83;99006.72;5030808;28;20076;-65
2022/04/01 11:04:52;;;;;;;27.52;19.92;;;;;;;15.73;61.42;99013.16;5030853;28;20460;-64
2022/04/01 11:07:21;;;;;;;29.33;19.13;;;;;;;15.90;60.86;99011.41;5030898;28;20050;-65
2022/04/01 11:09:55;;;;;;;24.05;18.77;;;;;;;16.04;60.70;99007.28;5028893;28;20378;-65
2022/04/01 11:12:27;;;;;;;29.63;19.35;;;;;;;16.13;60.37;99007.09;5030679;28;20140;-65
2022/04/01 11:14:53;;;;;;;27.58;17.52;;;;;;;16.29;60.02;99005.41;5030214;28;20482;-64
2022/04/01 11:17:26;;;;;;;29.30;20.10;;;;;;;16.32;59.71;99003.25;5030437;28;20587;-64
2022/04/01 11:20:14;;;;;;;26.77;19.75;;;;;;;16.52;59.14;99008.22;5030511;28;20486;-64
2022/04/01 11:22:53;;;;;;;28.83;19.48;;;;;;;16.74;58.65;99003.22;5030376;28;20115;-65
2022/04/01 11:25:27;;;;;;;25.77;20.10;;;;;;;17.07;57.88;98998.63;5029945;28;20486;-65
2022/04/01 11:27:56;;;;;;;27.73;19.10;;;;;;;17.21;57.44;99004.22;5028161;28;20042;-65
2022/04/01 11:30:25;;;;;;;23.65;17.13;;;;;;;17.29;57.49;98993.56;5030156;28;20046;-65
2022/04/01 11:32:54;;;;;;;23.83;13.75;;;;;;;17.70;56.47;98993.34;5029809;28;20050;-66
2022/04/01 11:35:23;;;;;;;23.65;13.80;;;;;;;18.36;56.01;98995.47;5030228;28;20046;-66
2022/04/01 11:37:50;;;;;;;21.05;12.80;;;;;;;18.86;56.60;98993.13;5009802;28;20480;-66
2022/04/01 11:40:26;;;;;;;30.58;14.15;;;;;;;19.01;56.70;98985.16;5026174;28;20513;-66
2022/04/01 11:43:02;;;;;;;27.15;13.57;;;;;;;19.04;57.98;98986.63;5029097;28;20052;-65